Rechercher aéroport 
image banner adimage banner adimage banner ad
image banner ad

0CL8 - Tera

Situé à Ridgecrest, United States

ICAO - 0CL8, IATA -

Données fournies par Airmate  

Information générale

Coordonnées: N35°35'29" W117°38'1"
Élévation : 2510 feet MSL.
Variation magnétique : 14° East
Voir autres Aéroports à California

Données opérationnelles

Special qualification required
Heure actuelle UTC:
Heure actuelle locale:
METAR: KNID 020456Z 21005KT 10SM CLR 33/02 A3002 RMK AO2 SLP137 T03280022 $
Voir NOTAMs / SUP AIP / TFR affectant cet aéroport [VIEW]
Fréquences de communication: [VIEW]

Pistes:

Identifiant RWYQFULongueur (ft)Largeur (ft)SurfaceLDA (ft)
06350080GRASS
24350080GRASS

Coordonnées de l'aéroport

Adresse: Ridgecrest United States

Vue satellite de 0CL8